メインページ
METAR-TAF:

METAR-TAF

空港 :

チュニス, チュニジア

チュニス・カルタゴ国際空港

緯度: 36-50N, 経度: 010-14E, 海抜: 3m

現時点の気象観測

当レポートは21分前の11:30(UTC)に作成
の風 10kt
気温 27°C
湿度 37%
気圧 1019 hPa
視程10km以上
1,500メートル以下は雲なし、積乱雲なし

METAR: DTTA 241130Z 36010KT CAVOK 27/11 Q1019 NOSIG

時間: 12:51 (11:51 UTC)

予報

当レポートは47分前の11:04(UTC)に作成
予報は24日の 12時(UTC)から 25日の 12時(UTC)まで有効
の風 10kt
視程10km以上
1,500メートル以下は雲なし、積乱雲なし

TAF: DTTA 241104Z 2412/2512 01010KT CAVOK

4,000以上の空港の気象観測と天気予報(METAR報とTAF報)

利用可能な観測所は地図上に黄色い丸と赤い丸で示す。

丸の上にカーソルを重ねると観測所名を参照できる。

次にクリックすると気象観測と天気予報を参照できる。

マップの切り替え:黒色「×」印の緑ボタンをクリックして拡大、「-」印の緑ボタンをクリックして縮小、緑色の三角印をクリックして隣りの地図に切り替え


METAR-TAF: